createdAt,value
2019-01-31T00:01:15.201Z,78.60
2019-01-31T00:04:03.157Z,79.00
2019-01-31T00:06:42.311Z,80.00
2019-01-31T00:09:25.431Z,80.10
2019-01-31T00:12:10.679Z,80.70
2019-01-31T00:14:47.244Z,80.60
2019-01-31T00:17:38.461Z,81.20
2019-01-31T00:20:26.352Z,81.20
2019-01-31T00:23:11.480Z,81.40
2019-01-31T00:25:56.737Z,81.40
2019-01-31T00:28:38.776Z,81.10
2019-01-31T00:31:27.993Z,81.00
2019-01-31T00:34:23.524Z,80.50
2019-01-31T00:37:13.436Z,80.30
2019-01-31T00:39:52.033Z,81.00
2019-01-31T00:42:33.993Z,81.30
2019-01-31T00:45:13.045Z,81.00
2019-01-31T00:47:57.113Z,81.50
2019-01-31T00:50:45.103Z,81.60
2019-01-31T00:53:41.889Z,81.00
2019-01-31T00:56:38.211Z,81.10
2019-01-31T00:59:13.098Z,80.50
2019-01-31T01:02:17.749Z,80.10
2019-01-31T01:05:03.490Z,80.10
2019-01-31T01:07:56.245Z,80.40
2019-01-31T01:10:54.903Z,80.10
2019-01-31T01:13:48.989Z,82.50
2019-01-31T01:16:24.606Z,82.50
2019-01-31T01:19:03.520Z,82.30
2019-01-31T01:21:54.580Z,82.50
2019-01-31T01:24:39.633Z,83.10
2019-01-31T01:27:12.508Z,82.50
2019-01-31T01:30:00.376Z,82.90
2019-01-31T01:32:51.741Z,82.20
2019-01-31T01:35:27.547Z,81.60
2019-01-31T01:38:15.316Z,82.50
2019-01-31T01:41:11.017Z,82.60
2019-01-31T01:44:13.678Z,82.20
2019-01-31T01:47:04.537Z,82.20
2019-01-31T01:49:37.392Z,82.10
2019-01-31T01:52:31.468Z,81.80
2019-01-31T01:55:31.549Z,82.50
2019-01-31T01:58:10.889Z,82.00
2019-01-31T02:00:58.849Z,81.80
2019-01-31T02:03:40.639Z,82.10
2019-01-31T02:06:31.728Z,82.10
2019-01-31T02:09:36.047Z,81.90
2019-01-31T02:12:26.747Z,82.20
2019-01-31T02:15:22.532Z,82.50
2019-01-31T02:18:04.240Z,82.50
2019-01-31T02:21:11.750Z,82.80
2019-01-31T02:24:06.157Z,82.90
2019-01-31T02:26:39.137Z,83.20
2019-01-31T02:29:32.822Z,83.50
2019-01-31T02:32:05.880Z,83.60
2019-01-31T02:34:58.088Z,83.90
2019-01-31T02:37:42.952Z,83.90
2019-01-31T02:40:38.210Z,84.20
2019-01-31T02:43:26.172Z,84.20
2019-01-31T02:46:08.063Z,84.60
2019-01-31T02:48:41.124Z,84.60
2019-01-31T02:51:47.369Z,84.60
2019-01-31T02:54:29.161Z,84.90
2019-01-31T02:57:14.051Z,85.60
2019-01-31T02:59:50.153Z,86.00
2019-01-31T03:02:29.000Z,86.00
2019-01-31T03:05:07.985Z,87.30
2019-01-31T03:07:46.972Z,86.80
2019-01-31T03:10:40.724Z,86.70
2019-01-31T03:13:25.395Z,86.80
2019-01-31T03:16:21.961Z,86.90
2019-01-31T03:19:03.418Z,87.10
2019-01-31T03:21:52.576Z,87.40
2019-01-31T03:24:50.964Z,87.30
2019-01-31T03:27:38.992Z,87.20
2019-01-31T03:30:40.570Z,87.50
2019-01-31T03:33:13.535Z,87.50
2019-01-31T03:35:46.352Z,87.60
2019-01-31T03:38:25.365Z,88.20
2019-01-31T03:41:07.289Z,88.00
2019-01-31T03:43:49.187Z,87.70
2019-01-31T03:46:28.178Z,87.80
2019-01-31T03:49:10.108Z,88.00
2019-01-31T03:52:02.496Z,88.40
2019-01-31T03:54:51.746Z,88.10
2019-01-31T03:57:42.572Z,88.30
2019-01-31T04:00:24.412Z,88.60
2019-01-31T04:03:02.897Z,88.60
2019-01-31T04:05:41.850Z,88.70
2019-01-31T04:08:12.606Z,88.70
2019-01-31T04:10:42.991Z,88.80
2019-01-31T04:13:13.313Z,88.70
2019-01-31T04:15:43.658Z,89.00
2019-01-31T04:18:14.125Z,89.20
2019-01-31T04:20:44.624Z,89.00
2019-01-31T04:23:15.077Z,89.30
2019-01-31T04:25:45.400Z,89.10
2019-01-31T04:28:15.836Z,89.30
2019-01-31T04:30:46.183Z,89.40
2019-01-31T04:33:16.534Z,89.20
2019-01-31T04:35:47.022Z,89.20
2019-01-31T04:38:19.707Z,89.60
2019-01-31T04:40:49.179Z,89.40
2019-01-31T04:43:19.552Z,89.60
2019-01-31T04:45:49.930Z,89.80
2019-01-31T04:48:20.259Z,89.80
2019-01-31T04:50:50.740Z,89.90
2019-01-31T04:53:21.034Z,90.10
2019-01-31T04:55:51.438Z,90.00
2019-01-31T04:58:21.861Z,90.00
2019-01-31T05:00:52.225Z,90.10
2019-01-31T05:03:41.684Z,90.20
2019-01-31T05:06:12.045Z,90.20
2019-01-31T05:08:42.987Z,90.20
2019-01-31T05:11:13.503Z,90.30
2019-01-31T05:13:44.696Z,90.50
2019-01-31T05:16:15.041Z,90.50
2019-01-31T05:18:45.455Z,90.70
2019-01-31T05:21:15.743Z,90.70
2019-01-31T05:23:46.130Z,90.70
2019-01-31T05:26:16.435Z,90.90
2019-01-31T05:28:46.815Z,90.90
2019-01-31T05:31:17.419Z,90.90
2019-01-31T05:33:47.800Z,91.10
2019-01-31T05:36:18.111Z,91.00
2019-01-31T05:38:48.551Z,91.10
2019-01-31T05:41:18.894Z,91.20
2019-01-31T05:43:49.258Z,91.30
2019-01-31T05:46:19.673Z,91.30
2019-01-31T05:48:50.051Z,91.40
2019-01-31T05:51:20.327Z,91.50
2019-01-31T05:53:50.695Z,91.70
2019-01-31T05:56:21.058Z,91.70
2019-01-31T05:58:51.404Z,91.70
2019-01-31T06:01:21.909Z,91.80
2019-01-31T06:03:52.216Z,91.80
2019-01-31T06:06:26.218Z,92.00
2019-01-31T06:08:56.965Z,92.00
2019-01-31T06:11:27.326Z,92.10
2019-01-31T06:13:57.740Z,92.20
2019-01-31T06:16:28.088Z,92.30
2019-01-31T06:18:58.412Z,92.50
2019-01-31T06:21:28.998Z,92.50
2019-01-31T06:23:59.369Z,92.60
2019-01-31T06:26:29.670Z,92.60
2019-01-31T06:29:00.047Z,92.90
2019-01-31T06:31:30.431Z,92.90
2019-01-31T06:34:00.795Z,93.00
2019-01-31T06:36:31.292Z,93.00
2019-01-31T06:39:01.635Z,93.30
2019-01-31T06:41:31.990Z,93.40
2019-01-31T06:44:02.428Z,93.50
2019-01-31T06:46:32.707Z,93.70
2019-01-31T06:49:03.007Z,94.00
2019-01-31T06:51:33.487Z,94.40
2019-01-31T06:54:03.767Z,94.80
2019-01-31T06:56:34.185Z,95.10
2019-01-31T06:59:04.550Z,95.20
2019-01-31T07:01:34.900Z,95.50
2019-01-31T07:04:06.230Z,95.50
2019-01-31T07:06:36.529Z,95.50
2019-01-31T07:09:09.475Z,95.50
2019-01-31T07:11:39.838Z,95.50
2019-01-31T07:14:10.168Z,95.70
2019-01-31T07:16:40.589Z,95.70
2019-01-31T07:19:10.953Z,95.70
2019-01-31T07:21:41.305Z,95.60
2019-01-31T07:24:11.735Z,95.80
2019-01-31T07:26:42.101Z,96.00
2019-01-31T07:29:12.431Z,96.10
2019-01-31T07:31:42.807Z,96.30
2019-01-31T07:34:13.130Z,96.40
2019-01-31T07:36:43.573Z,96.60
2019-01-31T07:39:13.935Z,96.70
2019-01-31T07:41:44.269Z,96.90
2019-01-31T07:44:14.729Z,97.00
2019-01-31T07:46:45.157Z,97.10
2019-01-31T07:49:15.502Z,97.20
2019-01-31T07:51:45.926Z,97.50
2019-01-31T07:54:16.285Z,97.60
2019-01-31T07:56:46.640Z,97.60
2019-01-31T07:59:17.047Z,97.90
2019-01-31T08:01:47.418Z,98.10
2019-01-31T08:04:17.717Z,98.30
2019-01-31T08:06:48.158Z,98.70
2019-01-31T08:09:18.494Z,99.30
2019-01-31T08:11:52.751Z,99.50
2019-01-31T08:14:21.083Z,99.90
2019-01-31T08:16:51.421Z,99.90
2019-01-31T08:19:21.733Z,99.90
2019-01-31T08:21:52.099Z,99.90
2019-01-31T08:24:22.411Z,99.90
2019-01-31T08:26:55.633Z,99.90
2019-01-31T08:29:25.209Z,99.90
2019-01-31T08:31:55.564Z,99.90
2019-01-31T08:34:25.906Z,99.90
2019-01-31T08:36:56.334Z,99.90
2019-01-31T08:39:26.714Z,99.90
2019-01-31T08:42:03.550Z,99.90
2019-01-31T08:44:28.916Z,99.90
2019-01-31T08:46:59.264Z,99.90
2019-01-31T08:49:29.620Z,99.90
2019-01-31T08:52:00.146Z,99.90
2019-01-31T08:54:30.500Z,99.90
2019-01-31T08:57:00.853Z,99.90
2019-01-31T08:59:32.636Z,99.90
2019-01-31T09:02:03.139Z,99.90
2019-01-31T09:04:33.554Z,99.90
2019-01-31T09:07:04.004Z,99.90
2019-01-31T09:09:34.366Z,99.90
2019-01-31T09:12:15.083Z,99.90
2019-01-31T09:14:37.307Z,99.90
2019-01-31T09:17:07.592Z,99.90
2019-01-31T09:19:37.907Z,99.90
2019-01-31T09:22:08.923Z,99.90
2019-01-31T09:24:41.818Z,99.90
2019-01-31T09:27:31.819Z,99.90
2019-01-31T09:30:25.706Z,99.90
2019-01-31T09:33:10.592Z,99.90
2019-01-31T09:35:43.497Z,99.90
2019-01-31T09:38:36.041Z,99.90
2019-01-31T09:41:27.126Z,99.90
2019-01-31T09:44:05.676Z,99.90
2019-01-31T09:46:41.601Z,99.90
2019-01-31T09:49:40.296Z,99.90
2019-01-31T09:52:22.296Z,99.90
2019-01-31T09:55:04.140Z,99.90
2019-01-31T09:57:42.637Z,99.90
2019-01-31T10:00:27.009Z,99.90
2019-01-31T10:03:10.871Z,99.90
2019-01-31T10:05:52.605Z,99.90
2019-01-31T10:08:31.430Z,99.90
2019-01-31T10:11:04.473Z,99.90
2019-01-31T10:13:46.558Z,99.90
2019-01-31T10:16:40.830Z,99.90
2019-01-31T10:19:19.327Z,99.90
2019-01-31T10:22:15.332Z,99.90
2019-01-31T10:25:06.105Z,99.90
2019-01-31T10:28:12.241Z,99.90
2019-01-31T10:30:57.003Z,99.90
2019-01-31T10:33:29.991Z,99.90
2019-01-31T10:36:21.290Z,99.90
2019-01-31T10:39:30.450Z,99.90
2019-01-31T10:42:24.346Z,99.90
2019-01-31T10:45:17.883Z,99.90
2019-01-31T10:47:59.505Z,99.90
2019-01-31T10:50:44.357Z,99.90
2019-01-31T10:53:35.165Z,99.90
2019-01-31T10:56:20.031Z,99.90
2019-01-31T10:58:53.006Z,99.90
2019-01-31T11:01:37.730Z,99.90
2019-01-31T11:04:16.336Z,99.90
2019-01-31T11:06:58.167Z,99.90
2019-01-31T11:09:37.142Z,99.90
2019-01-31T11:12:19.404Z,99.90
2019-01-31T11:15:04.506Z,99.90
2019-01-31T11:17:43.284Z,99.90
2019-01-31T11:20:34.480Z,99.90
2019-01-31T11:23:16.045Z,99.90
2019-01-31T11:26:06.924Z,99.90
2019-01-31T11:28:54.888Z,99.90
2019-01-31T11:31:42.715Z,99.90
2019-01-31T11:34:33.059Z,99.90
2019-01-31T11:37:07.474Z,99.90
2019-01-31T11:40:01.407Z,99.90
2019-01-31T11:42:34.457Z,99.90
2019-01-31T11:45:07.305Z,99.90
2019-01-31T11:48:08.799Z,99.90
2019-01-31T11:50:57.886Z,99.90
2019-01-31T11:53:36.524Z,99.90
2019-01-31T11:56:44.437Z,99.90
2019-01-31T11:59:14.848Z,99.90
2019-01-31T12:01:45.325Z,99.90
2019-01-31T12:04:15.813Z,99.90
2019-01-31T12:06:46.407Z,99.90
2019-01-31T12:09:17.133Z,99.90
2019-01-31T12:11:47.582Z,99.90
2019-01-31T12:14:18.116Z,99.90
2019-01-31T12:16:48.583Z,99.90
2019-01-31T12:19:19.126Z,99.90
2019-01-31T12:21:49.624Z,99.90
2019-01-31T12:24:20.080Z,99.90
2019-01-31T12:26:50.533Z,99.90
2019-01-31T12:29:21.073Z,99.90
2019-01-31T12:31:52.063Z,99.90
2019-01-31T12:34:22.438Z,99.90
2019-01-31T12:36:52.920Z,99.90
2019-01-31T12:39:23.270Z,99.90
2019-01-31T12:41:53.627Z,99.90
2019-01-31T12:44:24.057Z,99.90
2019-01-31T12:46:54.527Z,99.90
2019-01-31T12:49:24.883Z,99.90
2019-01-31T12:51:55.601Z,99.90
2019-01-31T12:54:26.002Z,99.90
2019-01-31T12:56:56.375Z,99.90
2019-01-31T12:59:26.873Z,99.90
2019-01-31T13:01:57.280Z,99.90
2019-01-31T13:04:27.753Z,99.90
2019-01-31T13:06:58.189Z,99.90
2019-01-31T13:09:31.697Z,99.90
2019-01-31T13:12:02.566Z,99.90
2019-01-31T13:14:32.935Z,99.90
2019-01-31T13:17:03.243Z,99.90
2019-01-31T13:19:33.733Z,99.90
2019-01-31T13:22:04.120Z,99.90
2019-01-31T13:24:34.583Z,99.90
2019-01-31T13:27:06.194Z,99.90
2019-01-31T13:29:36.584Z,99.90
2019-01-31T13:32:07.459Z,99.90
2019-01-31T13:34:37.888Z,99.90
2019-01-31T13:37:08.464Z,99.90
2019-01-31T13:39:38.891Z,99.90
2019-01-31T13:42:09.649Z,99.90
2019-01-31T13:44:42.852Z,99.90
2019-01-31T13:47:13.332Z,99.90
2019-01-31T13:49:43.780Z,99.90
2019-01-31T13:52:14.343Z,99.90
2019-01-31T13:54:44.749Z,99.90
2019-01-31T13:57:15.327Z,99.90
2019-01-31T13:59:45.628Z,99.90
2019-01-31T14:02:16.213Z,99.90
2019-01-31T14:04:46.566Z,99.90
2019-01-31T14:07:17.070Z,99.90
2019-01-31T14:09:47.595Z,99.90
2019-01-31T14:12:17.934Z,99.90
2019-01-31T14:14:48.782Z,99.90
2019-01-31T14:17:19.366Z,99.90
2019-01-31T14:19:49.737Z,99.90
2019-01-31T14:22:20.108Z,99.90
2019-01-31T14:24:50.558Z,99.90
2019-01-31T14:27:20.883Z,99.90
2019-01-31T14:29:52.516Z,99.90
2019-01-31T14:32:23.248Z,99.90
2019-01-31T14:34:53.672Z,99.90
2019-01-31T14:37:24.092Z,99.90
2019-01-31T14:39:54.552Z,99.90
2019-01-31T14:42:26.163Z,99.90
2019-01-31T14:44:56.763Z,99.90
2019-01-31T14:47:27.127Z,99.90
2019-01-31T14:50:10.133Z,99.90
2019-01-31T14:52:40.695Z,99.90
2019-01-31T14:55:12.690Z,99.90
2019-01-31T14:57:43.138Z,99.90
2019-01-31T15:00:19.079Z,99.90
2019-01-31T15:02:49.644Z,99.90
2019-01-31T15:05:21.322Z,99.90
2019-01-31T15:07:51.789Z,99.90
2019-01-31T15:10:30.360Z,99.90
2019-01-31T15:13:00.885Z,99.90
2019-01-31T15:15:31.591Z,99.90
2019-01-31T15:18:02.014Z,99.90
2019-01-31T15:20:38.312Z,99.90
2019-01-31T15:23:07.013Z,99.90
2019-01-31T15:25:37.413Z,99.90
2019-01-31T15:28:08.001Z,98.80
2019-01-31T15:30:41.118Z,98.70
2019-01-31T15:33:13.651Z,96.30
2019-01-31T15:35:44.167Z,94.70
2019-01-31T15:38:14.885Z,92.70
2019-01-31T15:40:49.589Z,91.60
2019-01-31T15:43:20.243Z,91.30
2019-01-31T15:45:53.596Z,90.50
2019-01-31T15:48:24.473Z,89.50
2019-01-31T15:50:55.412Z,88.70
2019-01-31T15:53:25.862Z,86.60
2019-01-31T15:55:56.362Z,85.10
2019-01-31T15:58:26.937Z,83.40
2019-01-31T16:00:57.535Z,81.60
2019-01-31T16:03:29.770Z,82.90
2019-01-31T16:06:00.191Z,80.80
2019-01-31T16:08:30.590Z,80.30
2019-01-31T16:11:01.181Z,78.10
2019-01-31T16:13:31.740Z,76.30
2019-01-31T16:16:02.318Z,74.80
2019-01-31T16:18:33.698Z,73.50
2019-01-31T16:21:04.077Z,73.50
2019-01-31T16:23:34.482Z,72.30
2019-01-31T16:26:05.207Z,70.70
2019-01-31T16:28:35.600Z,70.00
2019-01-31T16:31:06.292Z,67.60
2019-01-31T16:33:36.805Z,67.90
2019-01-31T16:36:07.404Z,67.10
2019-01-31T16:38:38.026Z,66.50
2019-01-31T16:41:08.664Z,67.10
2019-01-31T16:43:39.170Z,65.40
2019-01-31T16:46:12.344Z,64.90
2019-01-31T16:48:42.759Z,63.10
2019-01-31T16:51:13.113Z,61.90
2019-01-31T16:53:44.348Z,60.40
2019-01-31T16:56:14.758Z,60.30
2019-01-31T16:58:45.247Z,61.40
2019-01-31T17:01:18.912Z,59.90
2019-01-31T17:03:49.327Z,61.00
2019-01-31T17:06:19.697Z,60.00
2019-01-31T17:08:50.297Z,58.80
2019-01-31T17:11:20.794Z,58.50
2019-01-31T17:13:51.178Z,58.50
2019-01-31T17:16:22.641Z,57.10
2019-01-31T17:18:54.983Z,56.20
2019-01-31T17:21:25.541Z,57.10
2019-01-31T17:23:55.979Z,58.20
2019-01-31T17:26:26.540Z,56.70
2019-01-31T17:29:01.795Z,55.90
2019-01-31T17:31:34.714Z,55.20
2019-01-31T17:34:11.502Z,55.90
2019-01-31T17:36:41.902Z,54.70
2019-01-31T17:39:12.419Z,53.50
2019-01-31T17:41:42.848Z,54.60
2019-01-31T17:44:13.255Z,54.30
2019-01-31T17:46:43.773Z,53.90
2019-01-31T17:49:14.324Z,54.20
2019-01-31T17:51:44.780Z,53.60
2019-01-31T17:54:15.452Z,51.80
2019-01-31T17:56:47.011Z,52.70
2019-01-31T17:59:17.585Z,53.00
2019-01-31T18:01:48.120Z,53.00
2019-01-31T18:04:18.511Z,53.90
2019-01-31T18:06:48.928Z,52.60
2019-01-31T18:09:20.981Z,52.30
2019-01-31T18:11:51.385Z,51.50
2019-01-31T18:14:21.910Z,52.30
2019-01-31T18:16:52.552Z,52.10
2019-01-31T18:19:25.883Z,51.80
2019-01-31T18:21:56.499Z,51.30
2019-01-31T18:24:30.418Z,52.70
2019-01-31T18:27:00.814Z,52.10
2019-01-31T18:29:32.734Z,51.20
2019-01-31T18:32:05.664Z,52.20
2019-01-31T18:34:35.615Z,52.50
2019-01-31T18:37:06.256Z,52.40
2019-01-31T18:39:36.637Z,51.60
2019-01-31T18:42:06.982Z,51.00
2019-01-31T18:44:37.557Z,50.10
2019-01-31T18:47:07.971Z,50.10
2019-01-31T18:49:38.407Z,49.10
2019-01-31T18:52:08.965Z,49.30
2019-01-31T18:54:41.247Z,48.80
2019-01-31T18:57:12.866Z,48.50
2019-01-31T18:59:44.207Z,48.80
2019-01-31T19:02:15.193Z,49.00
2019-01-31T19:04:45.548Z,48.80
2019-01-31T19:07:16.113Z,49.40
2019-01-31T19:09:46.587Z,48.80
2019-01-31T19:12:17.105Z,48.10
2019-01-31T19:14:49.565Z,49.60
2019-01-31T19:17:20.066Z,50.20
2019-01-31T19:19:51.944Z,50.30
2019-01-31T19:22:23.259Z,50.20
2019-01-31T19:24:53.661Z,49.30
2019-01-31T19:27:26.771Z,49.50
2019-01-31T19:29:57.360Z,49.20
2019-01-31T19:32:27.885Z,48.20
2019-01-31T19:34:58.271Z,47.70
2019-01-31T19:37:30.319Z,48.20
2019-01-31T19:40:03.515Z,49.80
2019-01-31T19:42:33.837Z,49.20
2019-01-31T19:45:04.307Z,49.50
2019-01-31T19:47:34.903Z,49.80
2019-01-31T19:50:07.885Z,50.40
2019-01-31T19:52:38.353Z,50.70
2019-01-31T19:55:08.992Z,50.80
2019-01-31T19:57:39.405Z,51.40
2019-01-31T20:00:16.637Z,51.50
2019-01-31T20:02:47.130Z,50.60
2019-01-31T20:05:17.958Z,50.80
2019-01-31T20:07:48.767Z,50.30
2019-01-31T20:10:27.438Z,50.70
2019-01-31T20:13:00.780Z,50.60
2019-01-31T20:15:31.510Z,50.40
2019-01-31T20:18:02.213Z,50.40
2019-01-31T20:20:32.765Z,49.60
2019-01-31T20:23:03.582Z,50.20
2019-01-31T20:25:34.176Z,50.50
2019-01-31T20:28:04.803Z,50.20
2019-01-31T20:30:36.694Z,49.70
2019-01-31T20:33:12.312Z,50.10
2019-01-31T20:35:45.422Z,50.40
2019-01-31T20:38:16.246Z,50.70
2019-01-31T20:40:48.444Z,51.90
2019-01-31T20:43:19.105Z,52.60
2019-01-31T20:45:49.710Z,52.60
2019-01-31T20:48:20.109Z,51.70
2019-01-31T20:50:50.510Z,51.50
2019-01-31T20:53:21.167Z,51.00
2019-01-31T20:55:54.190Z,51.80
2019-01-31T20:58:26.587Z,52.30
2019-01-31T21:01:00.682Z,52.70
2019-01-31T21:03:36.791Z,52.70
2019-01-31T21:06:07.327Z,52.80
2019-01-31T21:08:38.179Z,53.10
2019-01-31T21:11:08.674Z,53.00
2019-01-31T21:13:39.122Z,53.20
2019-01-31T21:16:09.671Z,53.60
2019-01-31T21:18:44.482Z,54.30
2019-01-31T21:21:14.931Z,53.40
2019-01-31T21:23:51.091Z,53.50
2019-01-31T21:26:24.568Z,53.50
2019-01-31T21:28:53.513Z,53.20
2019-01-31T21:31:23.983Z,53.30
2019-01-31T21:33:54.652Z,54.10
2019-01-31T21:36:30.221Z,54.80
2019-01-31T21:39:00.845Z,54.50
2019-01-31T21:41:31.396Z,55.50
2019-01-31T21:44:01.802Z,56.40
2019-01-31T21:46:39.540Z,60.00
2019-01-31T21:49:09.947Z,65.60
2019-01-31T21:51:40.418Z,66.30
2019-01-31T21:54:11.110Z,66.60
2019-01-31T21:56:41.666Z,67.80
2019-01-31T21:59:12.151Z,67.50
2019-01-31T22:01:42.691Z,67.40
2019-01-31T22:04:13.136Z,67.70
2019-01-31T22:06:43.537Z,68.80
2019-01-31T22:09:14.278Z,70.20
2019-01-31T22:11:46.140Z,70.80
2019-01-31T22:14:16.566Z,71.70
2019-01-31T22:16:48.568Z,71.60
2019-01-31T22:19:20.279Z,72.10
2019-01-31T22:21:50.649Z,72.50
2019-01-31T22:24:21.271Z,72.60
2019-01-31T22:26:51.942Z,73.30
2019-01-31T22:29:22.443Z,72.40
2019-01-31T22:31:53.097Z,71.90
2019-01-31T22:34:23.626Z,71.50
2019-01-31T22:36:54.294Z,71.40
2019-01-31T22:39:26.484Z,70.80
2019-01-31T22:41:57.204Z,71.40
2019-01-31T22:44:30.449Z,71.50
2019-01-31T22:47:00.836Z,72.50
2019-01-31T22:49:31.215Z,73.60
2019-01-31T22:52:04.786Z,74.40
2019-01-31T22:54:38.312Z,74.40
2019-01-31T22:57:08.789Z,75.50
2019-01-31T22:59:39.194Z,75.90
2019-01-31T23:02:10.501Z,76.50
2019-01-31T23:04:43.923Z,77.90
2019-01-31T23:07:14.888Z,79.00
2019-01-31T23:09:45.399Z,80.90
2019-01-31T23:12:16.130Z,80.60
2019-01-31T23:14:47.321Z,80.80
2019-01-31T23:17:18.511Z,81.80
2019-01-31T23:19:48.998Z,83.10
2019-01-31T23:22:19.518Z,83.90
2019-01-31T23:24:49.862Z,83.90
2019-01-31T23:27:20.471Z,84.10
2019-01-31T23:29:52.582Z,84.70
2019-01-31T23:32:23.175Z,85.70
2019-01-31T23:34:53.610Z,85.40
2019-01-31T23:37:24.893Z,85.90
2019-01-31T23:39:57.642Z,86.00
2019-01-31T23:42:27.105Z,87.20
2019-01-31T23:44:57.459Z,89.10
2019-01-31T23:47:28.104Z,89.30
2019-01-31T23:49:58.621Z,91.30
2019-01-31T23:52:29.083Z,92.30
2019-01-31T23:54:59.802Z,93.00
2019-01-31T23:57:31.815Z,93.60
